KINT/INT METAR and TAF weather

Enter ICAO airport designator
Station Type Date Time Source
KINT METAR 2021/03/08 02:54 UTC NOAA

KINT 080254Z AUTO 34003KT 10SM CLR 04/M10 A3042 RMK AO2 SLP302 T00441100 51026


Station Type Date Time Source
KINT Decoded METAR 2021/03/08 02:54 UTC NOAA

WINSTON SALEM SMITH REYNOLDS, NC, United States (KINT) 36-08N 80-14W 291M
Mar 07, 2021 - 09:54 PM EST / 2021.03.08 0254 UTC
Wind: from the NNW (340 degrees) at 3 MPH (3 KT):0
Visibility: 10 mile(s):0
Sky conditions: clear
Temperature: 39.9 F (4.4 C)
Dew Point: 14.0 F (-10.0 C)
Relative Humidity: 34%
Pressure (altimeter): 30.42 in. Hg (1030 hPa)
Pressure tendency: 0.08 inches (2.6 hPa) higher than three hours ago
ob: KINT 080254Z AUTO 34003KT 10SM CLR 04/M10 A3042 RMK AO2 SLP302 T00441100 51026
cycle: 3

Station Type Date Time Source
KINT TAF 2021/03/07 18:22 UTC NOAA

TAF KINT 071720Z 0718/0818 32004KT P6SM FEW250

Example: see airport list